sensor_id;sensor_type;location;lat;lon;timestamp;temperature;humidity
78516;SHT31;67815;51.990;5.688;2023-10-09T00:02:25;17.1;73.2
78516;SHT31;67815;51.990;5.688;2023-10-09T00:04:56;17.1;73.1
78516;SHT31;67815;51.990;5.688;2023-10-09T00:07:26;17.1;73.1
78516;SHT31;67815;51.990;5.688;2023-10-09T00:09:58;17.1;73.1
78516;SHT31;67815;51.990;5.688;2023-10-09T00:12:33;17.1;73.1
78516;SHT31;67815;51.990;5.688;2023-10-09T00:15:04;17.1;73.3
78516;SHT31;67815;51.990;5.688;2023-10-09T00:17:40;17.1;73.2
78516;SHT31;67815;51.990;5.688;2023-10-09T00:20:14;17.1;73.3
78516;SHT31;67815;51.990;5.688;2023-10-09T00:22:51;17.1;73.2
78516;SHT31;67815;51.990;5.688;2023-10-09T00:25:24;17.1;73.4
78516;SHT31;67815;51.990;5.688;2023-10-09T00:28:01;17.1;73.4
78516;SHT31;67815;51.990;5.688;2023-10-09T00:30:33;17.1;73.4
78516;SHT31;67815;51.990;5.688;2023-10-09T00:33:03;17.1;73.3
78516;SHT31;67815;51.990;5.688;2023-10-09T00:35:36;17.1;73.4
78516;SHT31;67815;51.990;5.688;2023-10-09T00:38:12;17.1;73.4
78516;SHT31;67815;51.990;5.688;2023-10-09T00:40:52;17.1;73.4
78516;SHT31;67815;51.990;5.688;2023-10-09T00:43:30;17.1;73.3
78516;SHT31;67815;51.990;5.688;2023-10-09T00:46:07;17.1;73.4
78516;SHT31;67815;51.990;5.688;2023-10-09T00:48:45;17.1;73.3
78516;SHT31;67815;51.990;5.688;2023-10-09T00:51:17;17.1;73.3
78516;SHT31;67815;51.990;5.688;2023-10-09T00:53:48;17.1;73.3
78516;SHT31;67815;51.990;5.688;2023-10-09T00:56:21;17.1;73.3
78516;SHT31;67815;51.990;5.688;2023-10-09T00:58:58;17.1;73.4
78516;SHT31;67815;51.990;5.688;2023-10-09T01:01:35;17.1;73.4
78516;SHT31;67815;51.990;5.688;2023-10-09T01:04:08;17.1;73.6
78516;SHT31;67815;51.990;5.688;2023-10-09T01:06:45;17.1;73.6
78516;SHT31;67815;51.990;5.688;2023-10-09T01:09:21;17.1;73.9
78516;SHT31;67815;51.990;5.688;2023-10-09T01:11:51;17.1;73.9
78516;SHT31;67815;51.990;5.688;2023-10-09T01:14:33;17.1;74.0
78516;SHT31;67815;51.990;5.688;2023-10-09T01:17:08;17.2;74.0
78516;SHT31;67815;51.990;5.688;2023-10-09T01:19:39;17.2;74.1
78516;SHT31;67815;51.990;5.688;2023-10-09T01:22:11;17.2;74.2
78516;SHT31;67815;51.990;5.688;2023-10-09T01:24:43;17.2;74.2
78516;SHT31;67815;51.990;5.688;2023-10-09T01:27:13;17.2;74.4
78516;SHT31;67815;51.990;5.688;2023-10-09T01:29:44;17.2;74.7
78516;SHT31;67815;51.990;5.688;2023-10-09T01:32:13;17.2;74.6
78516;SHT31;67815;51.990;5.688;2023-10-09T01:34:47;17.2;74.7
78516;SHT31;67815;51.990;5.688;2023-10-09T01:37:19;17.2;74.7
78516;SHT31;67815;51.990;5.688;2023-10-09T01:39:52;17.2;74.6
78516;SHT31;67815;51.990;5.688;2023-10-09T01:42:26;17.2;74.7
78516;SHT31;67815;51.990;5.688;2023-10-09T01:45:02;17.2;74.8
78516;SHT31;67815;51.990;5.688;2023-10-09T01:47:42;17.2;74.8
78516;SHT31;67815;51.990;5.688;2023-10-09T01:50:19;17.2;74.8
78516;SHT31;67815;51.990;5.688;2023-10-09T01:52:49;17.2;75.1
78516;SHT31;67815;51.990;5.688;2023-10-09T01:55:20;17.2;75.1
78516;SHT31;67815;51.990;5.688;2023-10-09T01:58:04;17.2;75.1
78516;SHT31;67815;51.990;5.688;2023-10-09T02:00:37;17.2;75.2
78516;SHT31;67815;51.990;5.688;2023-10-09T02:03:11;17.3;75.5
78516;SHT31;67815;51.990;5.688;2023-10-09T02:05:47;17.3;75.6
78516;SHT31;67815;51.990;5.688;2023-10-09T02:08:17;17.3;75.4
78516;SHT31;67815;51.990;5.688;2023-10-09T02:10:49;17.3;75.7
78516;SHT31;67815;51.990;5.688;2023-10-09T02:13:24;17.3;75.3
78516;SHT31;67815;51.990;5.688;2023-10-09T02:15:58;17.3;75.4
78516;SHT31;67815;51.990;5.688;2023-10-09T02:18:33;17.3;75.6
78516;SHT31;67815;51.990;5.688;2023-10-09T02:21:13;17.4;75.4
78516;SHT31;67815;51.990;5.688;2023-10-09T02:23:43;17.4;75.2
78516;SHT31;67815;51.990;5.688;2023-10-09T02:26:18;17.4;75.2
78516;SHT31;67815;51.990;5.688;2023-10-09T02:28:55;17.4;75.1
78516;SHT31;67815;51.990;5.688;2023-10-09T02:31:34;17.4;75.0
78516;SHT31;67815;51.990;5.688;2023-10-09T02:34:07;17.4;75.0
78516;SHT31;67815;51.990;5.688;2023-10-09T02:36:38;17.4;74.9
78516;SHT31;67815;51.990;5.688;2023-10-09T02:39:14;17.5;75.0
78516;SHT31;67815;51.990;5.688;2023-10-09T02:41:50;17.5;75.0
78516;SHT31;67815;51.990;5.688;2023-10-09T02:44:22;17.5;74.8
78516;SHT31;67815;51.990;5.688;2023-10-09T02:46:54;17.5;74.8
78516;SHT31;67815;51.990;5.688;2023-10-09T02:49:25;17.5;74.7
78516;SHT31;67815;51.990;5.688;2023-10-09T02:51:56;17.5;74.5
78516;SHT31;67815;51.990;5.688;2023-10-09T02:54:26;17.5;75.0
78516;SHT31;67815;51.990;5.688;2023-10-09T02:57:02;17.5;74.8
78516;SHT31;67815;51.990;5.688;2023-10-09T02:59:36;17.5;75.3
78516;SHT31;67815;51.990;5.688;2023-10-09T03:02:09;17.5;75.0
78516;SHT31;67815;51.990;5.688;2023-10-09T03:04:40;17.5;74.8
78516;SHT31;67815;51.990;5.688;2023-10-09T03:07:10;17.6;75.1
78516;SHT31;67815;51.990;5.688;2023-10-09T03:09:41;17.6;75.0
78516;SHT31;67815;51.990;5.688;2023-10-09T03:12:10;17.6;75.0
78516;SHT31;67815;51.990;5.688;2023-10-09T03:14:41;17.6;74.7
78516;SHT31;67815;51.990;5.688;2023-10-09T03:17:13;17.6;74.8
78516;SHT31;67815;51.990;5.688;2023-10-09T03:19:42;17.6;74.8
78516;SHT31;67815;51.990;5.688;2023-10-09T03:22:13;17.6;74.8
78516;SHT31;67815;51.990;5.688;2023-10-09T03:24:43;17.6;74.7
78516;SHT31;67815;51.990;5.688;2023-10-09T03:27:14;17.6;74.9
78516;SHT31;67815;51.990;5.688;2023-10-09T03:29:44;17.6;74.7
78516;SHT31;67815;51.990;5.688;2023-10-09T03:32:21;17.6;75.2
78516;SHT31;67815;51.990;5.688;2023-10-09T03:34:51;17.6;75.1
78516;SHT31;67815;51.990;5.688;2023-10-09T03:37:22;17.6;75.3
78516;SHT31;67815;51.990;5.688;2023-10-09T03:39:58;17.6;75.4
78516;SHT31;67815;51.990;5.688;2023-10-09T03:42:28;17.6;75.1
78516;SHT31;67815;51.990;5.688;2023-10-09T03:45:01;17.6;75.0
78516;SHT31;67815;51.990;5.688;2023-10-09T03:47:35;17.6;74.8
78516;SHT31;67815;51.990;5.688;2023-10-09T03:50:09;17.6;74.8
78516;SHT31;67815;51.990;5.688;2023-10-09T03:52:45;17.6;74.8
78516;SHT31;67815;51.990;5.688;2023-10-09T03:55:14;17.6;75.0
78516;SHT31;67815;51.990;5.688;2023-10-09T03:57:44;17.6;74.8
78516;SHT31;67815;51.990;5.688;2023-10-09T04:00:15;17.6;74.8
78516;SHT31;67815;51.990;5.688;2023-10-09T04:02:50;17.6;74.9
78516;SHT31;67815;51.990;5.688;2023-10-09T04:05:20;17.7;75.0
78516;SHT31;67815;51.990;5.688;2023-10-09T04:07:50;17.7;75.8
78516;SHT31;67815;51.990;5.688;2023-10-09T04:10:21;17.7;75.6
78516;SHT31;67815;51.990;5.688;2023-10-09T04:13:30;17.7;75.7
78516;SHT31;67815;51.990;5.688;2023-10-09T04:16:04;17.7;76.2
78516;SHT31;67815;51.990;5.688;2023-10-09T04:18:46;17.7;75.8
78516;SHT31;67815;51.990;5.688;2023-10-09T04:21:17;17.7;75.8
78516;SHT31;67815;51.990;5.688;2023-10-09T04:23:54;17.7;75.8
78516;SHT31;67815;51.990;5.688;2023-10-09T04:26:44;17.7;76.1
78516;SHT31;67815;51.990;5.688;2023-10-09T04:29:15;17.7;75.9
78516;SHT31;67815;51.990;5.688;2023-10-09T04:31:51;17.7;75.8
78516;SHT31;67815;51.990;5.688;2023-10-09T04:34:23;17.7;76.3
78516;SHT31;67815;51.990;5.688;2023-10-09T04:36:57;17.7;76.3
78516;SHT31;67815;51.990;5.688;2023-10-09T04:39:28;17.7;76.2
78516;SHT31;67815;51.990;5.688;2023-10-09T04:42:11;17.8;76.1
78516;SHT31;67815;51.990;5.688;2023-10-09T04:44:58;17.8;76.1
78516;SHT31;67815;51.990;5.688;2023-10-09T04:48:47;17.8;76.0
78516;SHT31;67815;51.990;5.688;2023-10-09T04:51:21;17.8;75.9
78516;SHT31;67815;51.990;5.688;2023-10-09T04:53:56;17.8;76.0
78516;SHT31;67815;51.990;5.688;2023-10-09T04:56:35;17.8;75.9
78516;SHT31;67815;51.990;5.688;2023-10-09T04:59:11;17.8;76.2
78516;SHT31;67815;51.990;5.688;2023-10-09T05:01:45;17.8;76.6
78516;SHT31;67815;51.990;5.688;2023-10-09T05:04:21;17.8;76.2
78516;SHT31;67815;51.990;5.688;2023-10-09T05:07:01;17.8;76.8
78516;SHT31;67815;51.990;5.688;2023-10-09T05:09:37;17.8;76.7
78516;SHT31;67815;51.990;5.688;2023-10-09T05:12:12;17.8;76.5
78516;SHT31;67815;51.990;5.688;2023-10-09T05:14:45;17.9;76.4
78516;SHT31;67815;51.990;5.688;2023-10-09T05:17:22;17.9;76.4
78516;SHT31;67815;51.990;5.688;2023-10-09T05:19:54;17.9;76.4
78516;SHT31;67815;51.990;5.688;2023-10-09T05:22:29;17.9;76.3
78516;SHT31;67815;51.990;5.688;2023-10-09T05:25:04;17.9;76.4
78516;SHT31;67815;51.990;5.688;2023-10-09T05:27:50;17.9;76.9
78516;SHT31;67815;51.990;5.688;2023-10-09T05:30:27;17.9;77.0
78516;SHT31;67815;51.990;5.688;2023-10-09T05:33:01;17.9;77.3
78516;SHT31;67815;51.990;5.688;2023-10-09T05:35:57;17.9;77.4
78516;SHT31;67815;51.990;5.688;2023-10-09T05:38:39;17.9;77.1
78516;SHT31;67815;51.990;5.688;2023-10-09T05:41:14;17.9;77.1
78516;SHT31;67815;51.990;5.688;2023-10-09T05:44:33;17.9;77.0
78516;SHT31;67815;51.990;5.688;2023-10-09T05:47:18;17.9;76.9
78516;SHT31;67815;51.990;5.688;2023-10-09T05:50:07;17.9;77.3
78516;SHT31;67815;51.990;5.688;2023-10-09T05:52:54;18.0;77.4
78516;SHT31;67815;51.990;5.688;2023-10-09T05:55:39;18.0;77.2
78516;SHT31;67815;51.990;5.688;2023-10-09T05:58:24;18.0;77.2
78516;SHT31;67815;51.990;5.688;2023-10-09T06:01:16;18.0;77.5
78516;SHT31;67815;51.990;5.688;2023-10-09T06:04:02;18.0;77.6
78516;SHT31;67815;51.990;5.688;2023-10-09T06:06:39;18.0;77.2
78516;SHT31;67815;51.990;5.688;2023-10-09T06:09:13;18.0;77.6
78516;SHT31;67815;51.990;5.688;2023-10-09T06:12:03;18.0;77.5
78516;SHT31;67815;51.990;5.688;2023-10-09T06:14:49;18.0;77.5
78516;SHT31;67815;51.990;5.688;2023-10-09T06:17:23;18.1;77.5
78516;SHT31;67815;51.990;5.688;2023-10-09T06:19:55;18.1;77.7
78516;SHT31;67815;51.990;5.688;2023-10-09T06:22:33;18.1;77.5
78516;SHT31;67815;51.990;5.688;2023-10-09T06:25:18;18.1;77.4
78516;SHT31;67815;51.990;5.688;2023-10-09T06:27:53;18.1;77.2
78516;SHT31;67815;51.990;5.688;2023-10-09T06:30:29;18.1;77.1
78516;SHT31;67815;51.990;5.688;2023-10-09T06:33:02;18.1;77.1
78516;SHT31;67815;51.990;5.688;2023-10-09T06:35:55;18.1;77.2
78516;SHT31;67815;51.990;5.688;2023-10-09T06:38:29;18.1;77.2
78516;SHT31;67815;51.990;5.688;2023-10-09T06:41:08;18.2;77.4
78516;SHT31;67815;51.990;5.688;2023-10-09T06:43:53;18.2;77.2
78516;SHT31;67815;51.990;5.688;2023-10-09T06:46:23;18.2;77.2
78516;SHT31;67815;51.990;5.688;2023-10-09T06:49:18;18.2;77.1
78516;SHT31;67815;51.990;5.688;2023-10-09T06:52:01;18.2;77.1
78516;SHT31;67815;51.990;5.688;2023-10-09T06:54:43;18.2;77.1
78516;SHT31;67815;51.990;5.688;2023-10-09T06:57:19;18.2;76.9
78516;SHT31;67815;51.990;5.688;2023-10-09T07:00:17;18.2;77.0
78516;SHT31;67815;51.990;5.688;2023-10-09T07:03:03;18.3;77.4
78516;SHT31;67815;51.990;5.688;2023-10-09T07:05:37;18.3;77.1
78516;SHT31;67815;51.990;5.688;2023-10-09T07:08:14;18.3;77.3
78516;SHT31;67815;51.990;5.688;2023-10-09T07:11:00;18.3;77.4
78516;SHT31;67815;51.990;5.688;2023-10-09T07:13:38;18.3;77.5
78516;SHT31;67815;51.990;5.688;2023-10-09T07:16:08;18.4;77.3
78516;SHT31;67815;51.990;5.688;2023-10-09T07:19:03;18.4;77.3
78516;SHT31;67815;51.990;5.688;2023-10-09T07:21:44;18.4;77.3
78516;SHT31;67815;51.990;5.688;2023-10-09T07:24:18;18.4;77.5
78516;SHT31;67815;51.990;5.688;2023-10-09T07:26:52;18.4;77.3
78516;SHT31;67815;51.990;5.688;2023-10-09T07:29:23;18.5;77.5
78516;SHT31;67815;51.990;5.688;2023-10-09T07:31:55;18.5;77.7
78516;SHT31;67815;51.990;5.688;2023-10-09T07:34:33;18.5;77.3
78516;SHT31;67815;51.990;5.688;2023-10-09T07:37:21;18.5;77.6
78516;SHT31;67815;51.990;5.688;2023-10-09T07:39:57;18.5;77.3
78516;SHT31;67815;51.990;5.688;2023-10-09T07:42:32;18.5;77.5
78516;SHT31;67815;51.990;5.688;2023-10-09T07:45:16;18.5;77.5
78516;SHT31;67815;51.990;5.688;2023-10-09T07:48:28;18.6;77.7
78516;SHT31;67815;51.990;5.688;2023-10-09T07:51:02;18.6;77.9
78516;SHT31;67815;51.990;5.688;2023-10-09T07:53:32;18.6;77.8
78516;SHT31;67815;51.990;5.688;2023-10-09T07:56:09;18.6;78.0
78516;SHT31;67815;51.990;5.688;2023-10-09T07:58:41;18.6;78.0
78516;SHT31;67815;51.990;5.688;2023-10-09T08:01:17;18.6;78.6
78516;SHT31;67815;51.990;5.688;2023-10-09T08:03:56;18.6;78.4
78516;SHT31;67815;51.990;5.688;2023-10-09T08:06:36;18.6;78.1
78516;SHT31;67815;51.990;5.688;2023-10-09T08:09:11;18.6;78.3
78516;SHT31;67815;51.990;5.688;2023-10-09T08:11:52;18.7;78.3
78516;SHT31;67815;51.990;5.688;2023-10-09T08:14:40;18.7;78.3
78516;SHT31;67815;51.990;5.688;2023-10-09T08:17:15;18.8;78.3
78516;SHT31;67815;51.990;5.688;2023-10-09T08:19:50;18.8;78.2
78516;SHT31;67815;51.990;5.688;2023-10-09T08:22:25;18.8;78.3
78516;SHT31;67815;51.990;5.688;2023-10-09T08:25:18;18.9;78.2
78516;SHT31;67815;51.990;5.688;2023-10-09T08:28:02;18.9;78.5
78516;SHT31;67815;51.990;5.688;2023-10-09T08:31:08;18.9;78.1
78516;SHT31;67815;51.990;5.688;2023-10-09T08:33:42;19.0;78.1
78516;SHT31;67815;51.990;5.688;2023-10-09T08:36:12;19.0;77.8
78516;SHT31;67815;51.990;5.688;2023-10-09T08:38:48;19.0;78.1
78516;SHT31;67815;51.990;5.688;2023-10-09T08:41:20;19.1;77.9
78516;SHT31;67815;51.990;5.688;2023-10-09T08:43:53;19.1;78.1
78516;SHT31;67815;51.990;5.688;2023-10-09T08:46:24;19.1;78.1
78516;SHT31;67815;51.990;5.688;2023-10-09T08:48:57;19.1;78.4
78516;SHT31;67815;51.990;5.688;2023-10-09T08:51:28;19.2;78.1
78516;SHT31;67815;51.990;5.688;2023-10-09T08:54:03;19.2;78.4
78516;SHT31;67815;51.990;5.688;2023-10-09T08:56:38;19.2;77.8
78516;SHT31;67815;51.990;5.688;2023-10-09T08:59:13;19.2;77.8
78516;SHT31;67815;51.990;5.688;2023-10-09T09:01:46;19.3;77.8
78516;SHT31;67815;51.990;5.688;2023-10-09T09:04:38;19.3;78.0
78516;SHT31;67815;51.990;5.688;2023-10-09T09:07:28;19.3;78.1
78516;SHT31;67815;51.990;5.688;2023-10-09T09:10:02;19.4;77.9
78516;SHT31;67815;51.990;5.688;2023-10-09T09:12:39;19.4;77.9
78516;SHT31;67815;51.990;5.688;2023-10-09T09:15:14;19.4;77.3
78516;SHT31;67815;51.990;5.688;2023-10-09T09:17:50;19.5;77.5
78516;SHT31;67815;51.990;5.688;2023-10-09T09:20:23;19.5;77.3
78516;SHT31;67815;51.990;5.688;2023-10-09T09:22:57;19.5;77.2
78516;SHT31;67815;51.990;5.688;2023-10-09T09:25:42;19.5;77.3
78516;SHT31;67815;51.990;5.688;2023-10-09T09:28:15;19.6;77.6
78516;SHT31;67815;51.990;5.688;2023-10-09T09:30:49;19.6;77.7
78516;SHT31;67815;51.990;5.688;2023-10-09T09:33:23;19.6;77.6
78516;SHT31;67815;51.990;5.688;2023-10-09T09:36:03;19.6;77.6
78516;SHT31;67815;51.990;5.688;2023-10-09T09:38:35;19.7;77.7
78516;SHT31;67815;51.990;5.688;2023-10-09T09:41:15;19.7;78.1
78516;SHT31;67815;51.990;5.688;2023-10-09T09:43:54;19.7;76.8
78516;SHT31;67815;51.990;5.688;2023-10-09T09:46:28;19.8;77.3
78516;SHT31;67815;51.990;5.688;2023-10-09T09:49:03;19.8;76.8
78516;SHT31;67815;51.990;5.688;2023-10-09T09:51:39;19.8;76.9
78516;SHT31;67815;51.990;5.688;2023-10-09T09:54:10;19.9;76.9
78516;SHT31;67815;51.990;5.688;2023-10-09T09:56:45;19.9;76.9
78516;SHT31;67815;51.990;5.688;2023-10-09T09:59:19;19.9;76.8
78516;SHT31;67815;51.990;5.688;2023-10-09T10:01:56;20.0;76.2
78516;SHT31;67815;51.990;5.688;2023-10-09T10:04:35;20.0;76.3
78516;SHT31;67815;51.990;5.688;2023-10-09T10:07:07;20.0;75.7
78516;SHT31;67815;51.990;5.688;2023-10-09T10:09:41;20.0;76.3
78516;SHT31;67815;51.990;5.688;2023-10-09T10:12:12;20.1;76.8
78516;SHT31;67815;51.990;5.688;2023-10-09T10:14:54;20.1;76.1
78516;SHT31;67815;51.990;5.688;2023-10-09T10:17:27;20.1;75.9
78516;SHT31;67815;51.990;5.688;2023-10-09T10:20:07;20.1;75.8
78516;SHT31;67815;51.990;5.688;2023-10-09T10:23:18;20.2;75.7
78516;SHT31;67815;51.990;5.688;2023-10-09T10:25:54;20.2;75.9
78516;SHT31;67815;51.990;5.688;2023-10-09T10:28:28;20.2;75.1
78516;SHT31;67815;51.990;5.688;2023-10-09T10:31:02;20.3;75.2
78516;SHT31;67815;51.990;5.688;2023-10-09T10:34:05;20.3;75.8
78516;SHT31;67815;51.990;5.688;2023-10-09T10:36:38;20.3;75.1
78516;SHT31;67815;51.990;5.688;2023-10-09T10:39:11;20.4;74.9
78516;SHT31;67815;51.990;5.688;2023-10-09T10:41:55;20.4;75.1
78516;SHT31;67815;51.990;5.688;2023-10-09T10:44:31;20.4;74.5
78516;SHT31;67815;51.990;5.688;2023-10-09T10:47:08;20.4;73.9
78516;SHT31;67815;51.990;5.688;2023-10-09T10:49:51;20.5;73.9
78516;SHT31;67815;51.990;5.688;2023-10-09T10:52:27;20.5;75.0
78516;SHT31;67815;51.990;5.688;2023-10-09T10:55:11;20.5;73.6
78516;SHT31;67815;51.990;5.688;2023-10-09T10:57:52;20.5;73.9
78516;SHT31;67815;51.990;5.688;2023-10-09T11:00:34;20.5;73.5
78516;SHT31;67815;51.990;5.688;2023-10-09T11:04:55;20.6;73.3
78516;SHT31;67815;51.990;5.688;2023-10-09T11:07:26;20.6;73.7
78516;SHT31;67815;51.990;5.688;2023-10-09T11:09:58;20.6;73.7
78516;SHT31;67815;51.990;5.688;2023-10-09T11:12:45;20.7;74.6
78516;SHT31;67815;51.990;5.688;2023-10-09T11:15:32;20.7;73.8
78516;SHT31;67815;51.990;5.688;2023-10-09T11:18:13;20.7;73.6
78516;SHT31;67815;51.990;5.688;2023-10-09T11:20:49;20.8;74.5
78516;SHT31;67815;51.990;5.688;2023-10-09T11:23:39;20.8;74.3
78516;SHT31;67815;51.990;5.688;2023-10-09T11:26:16;20.8;72.7
78516;SHT31;67815;51.990;5.688;2023-10-09T11:29:12;20.9;73.5
78516;SHT31;67815;51.990;5.688;2023-10-09T11:32:03;20.9;73.3
78516;SHT31;67815;51.990;5.688;2023-10-09T11:34:34;20.9;73.6
78516;SHT31;67815;51.990;5.688;2023-10-09T11:37:14;21.0;72.7
78516;SHT31;67815;51.990;5.688;2023-10-09T11:39:50;21.0;73.7
78516;SHT31;67815;51.990;5.688;2023-10-09T11:42:21;21.1;74.1
78516;SHT31;67815;51.990;5.688;2023-10-09T11:44:56;21.1;73.6
78516;SHT31;67815;51.990;5.688;2023-10-09T11:47:36;21.1;71.8
78516;SHT31;67815;51.990;5.688;2023-10-09T11:50:10;21.2;72.4
78516;SHT31;67815;51.990;5.688;2023-10-09T11:52:58;21.2;71.2
78516;SHT31;67815;51.990;5.688;2023-10-09T11:57:41;21.2;71.6
78516;SHT31;67815;51.990;5.688;2023-10-09T12:00:13;21.3;71.9
78516;SHT31;67815;51.990;5.688;2023-10-09T12:02:48;21.3;72.3
78516;SHT31;67815;51.990;5.688;2023-10-09T12:05:18;21.3;71.0
78516;SHT31;67815;51.990;5.688;2023-10-09T12:07:48;21.3;71.1
78516;SHT31;67815;51.990;5.688;2023-10-09T12:10:23;21.4;71.2
78516;SHT31;67815;51.990;5.688;2023-10-09T12:12:54;21.4;70.9
78516;SHT31;67815;51.990;5.688;2023-10-09T12:15:25;21.4;69.8
78516;SHT31;67815;51.990;5.688;2023-10-09T12:18:01;21.4;70.5
78516;SHT31;67815;51.990;5.688;2023-10-09T12:20:31;21.4;69.6
78516;SHT31;67815;51.990;5.688;2023-10-09T12:23:02;21.4;69.2
78516;SHT31;67815;51.990;5.688;2023-10-09T12:25:34;21.5;68.4
78516;SHT31;67815;51.990;5.688;2023-10-09T12:28:04;21.5;69.8
78516;SHT31;67815;51.990;5.688;2023-10-09T12:30:39;21.5;69.4
78516;SHT31;67815;51.990;5.688;2023-10-09T12:33:09;21.5;70.1
78516;SHT31;67815;51.990;5.688;2023-10-09T12:35:40;21.5;70.3
78516;SHT31;67815;51.990;5.688;2023-10-09T12:38:13;21.5;70.0
78516;SHT31;67815;51.990;5.688;2023-10-09T12:40:46;21.5;70.2
78516;SHT31;67815;51.990;5.688;2023-10-09T12:43:21;21.5;69.6
78516;SHT31;67815;51.990;5.688;2023-10-09T12:45:50;21.6;69.8
78516;SHT31;67815;51.990;5.688;2023-10-09T12:48:24;21.6;70.8
78516;SHT31;67815;51.990;5.688;2023-10-09T12:50:54;21.6;69.3
78516;SHT31;67815;51.990;5.688;2023-10-09T12:53:25;21.6;70.8
78516;SHT31;67815;51.990;5.688;2023-10-09T12:55:56;21.6;70.1
78516;SHT31;67815;51.990;5.688;2023-10-09T12:58:25;21.6;70.2
78516;SHT31;67815;51.990;5.688;2023-10-09T13:00:56;21.6;69.9
78516;SHT31;67815;51.990;5.688;2023-10-09T13:03:31;21.6;70.4
78516;SHT31;67815;51.990;5.688;2023-10-09T13:06:00;21.6;71.3
78516;SHT31;67815;51.990;5.688;2023-10-09T13:08:34;21.6;69.9
78516;SHT31;67815;51.990;5.688;2023-10-09T13:11:06;21.6;70.4
78516;SHT31;67815;51.990;5.688;2023-10-09T13:13:39;21.6;70.3
78516;SHT31;67815;51.990;5.688;2023-10-09T13:16:13;21.6;69.9
78516;SHT31;67815;51.990;5.688;2023-10-09T13:18:47;21.6;70.0
78516;SHT31;67815;51.990;5.688;2023-10-09T13:21:21;21.6;70.2
78516;SHT31;67815;51.990;5.688;2023-10-09T13:23:51;21.6;70.2
78516;SHT31;67815;51.990;5.688;2023-10-09T13:26:22;21.6;70.8
78516;SHT31;67815;51.990;5.688;2023-10-09T13:28:58;21.6;69.8
78516;SHT31;67815;51.990;5.688;2023-10-09T13:31:30;21.6;69.7
78516;SHT31;67815;51.990;5.688;2023-10-09T13:34:01;21.6;70.4
78516;SHT31;67815;51.990;5.688;2023-10-09T13:36:34;21.6;69.8
78516;SHT31;67815;51.990;5.688;2023-10-09T13:39:06;21.6;69.7
78516;SHT31;67815;51.990;5.688;2023-10-09T13:41:52;21.6;69.8
78516;SHT31;67815;51.990;5.688;2023-10-09T13:44:29;21.6;70.8
78516;SHT31;67815;51.990;5.688;2023-10-09T13:47:02;21.6;70.3
78516;SHT31;67815;51.990;5.688;2023-10-09T13:49:33;21.7;70.3
78516;SHT31;67815;51.990;5.688;2023-10-09T13:52:05;21.7;70.9
78516;SHT31;67815;51.990;5.688;2023-10-09T13:54:36;21.7;69.7
78516;SHT31;67815;51.990;5.688;2023-10-09T13:57:09;21.7;71.1
78516;SHT31;67815;51.990;5.688;2023-10-09T13:59:39;21.7;70.7
78516;SHT31;67815;51.990;5.688;2023-10-09T14:02:17;21.7;71.0
78516;SHT31;67815;51.990;5.688;2023-10-09T14:04:50;21.7;70.3
78516;SHT31;67815;51.990;5.688;2023-10-09T14:07:22;21.7;69.7
78516;SHT31;67815;51.990;5.688;2023-10-09T14:09:54;21.7;70.6
78516;SHT31;67815;51.990;5.688;2023-10-09T14:12:29;21.7;70.9
78516;SHT31;67815;51.990;5.688;2023-10-09T14:14:59;21.7;70.3
78516;SHT31;67815;51.990;5.688;2023-10-09T14:17:31;21.7;70.0
78516;SHT31;67815;51.990;5.688;2023-10-09T14:20:02;21.7;69.5
78516;SHT31;67815;51.990;5.688;2023-10-09T14:22:57;21.7;69.8
78516;SHT31;67815;51.990;5.688;2023-10-09T14:25:32;21.7;69.7
78516;SHT31;67815;51.990;5.688;2023-10-09T14:28:06;21.7;70.2
78516;SHT31;67815;51.990;5.688;2023-10-09T14:30:38;21.7;70.5
78516;SHT31;67815;51.990;5.688;2023-10-09T14:33:20;21.7;70.7
78516;SHT31;67815;51.990;5.688;2023-10-09T14:35:54;21.7;70.2
78516;SHT31;67815;51.990;5.688;2023-10-09T14:38:25;21.7;69.5
78516;SHT31;67815;51.990;5.688;2023-10-09T14:41:01;21.7;68.7
78516;SHT31;67815;51.990;5.688;2023-10-09T14:43:31;21.7;69.8
78516;SHT31;67815;51.990;5.688;2023-10-09T14:46:01;21.7;69.2
78516;SHT31;67815;51.990;5.688;2023-10-09T14:48:36;21.7;68.8
78516;SHT31;67815;51.990;5.688;2023-10-09T14:51:05;21.6;69.5
78516;SHT31;67815;51.990;5.688;2023-10-09T14:53:38;21.6;69.9
78516;SHT31;67815;51.990;5.688;2023-10-09T14:56:08;21.6;70.0
78516;SHT31;67815;51.990;5.688;2023-10-09T14:58:42;21.6;69.9
78516;SHT31;67815;51.990;5.688;2023-10-09T15:01:14;21.6;70.1
78516;SHT31;67815;51.990;5.688;2023-10-09T15:03:46;21.6;70.7
78516;SHT31;67815;51.990;5.688;2023-10-09T15:06:20;21.7;70.3
78516;SHT31;67815;51.990;5.688;2023-10-09T15:08:51;21.7;70.4
78516;SHT31;67815;51.990;5.688;2023-10-09T15:11:23;21.7;71.1
78516;SHT31;67815;51.990;5.688;2023-10-09T15:13:56;21.7;71.0
78516;SHT31;67815;51.990;5.688;2023-10-09T15:16:26;21.7;71.1
78516;SHT31;67815;51.990;5.688;2023-10-09T15:18:58;21.7;70.1
78516;SHT31;67815;51.990;5.688;2023-10-09T15:21:31;21.7;69.9
78516;SHT31;67815;51.990;5.688;2023-10-09T15:24:02;21.7;69.3
78516;SHT31;67815;51.990;5.688;2023-10-09T15:26:34;21.7;69.7
78516;SHT31;67815;51.990;5.688;2023-10-09T15:29:06;21.7;69.2
78516;SHT31;67815;51.990;5.688;2023-10-09T15:31:37;21.7;69.2
78516;SHT31;67815;51.990;5.688;2023-10-09T15:34:07;21.7;69.7
78516;SHT31;67815;51.990;5.688;2023-10-09T15:36:37;21.7;69.5
78516;SHT31;67815;51.990;5.688;2023-10-09T15:39:07;21.7;69.8
78516;SHT31;67815;51.990;5.688;2023-10-09T15:41:39;21.7;70.3
78516;SHT31;67815;51.990;5.688;2023-10-09T15:44:09;21.7;70.4
78516;SHT31;67815;51.990;5.688;2023-10-09T15:46:40;21.7;69.7
78516;SHT31;67815;51.990;5.688;2023-10-09T15:49:12;21.7;69.9
78516;SHT31;67815;51.990;5.688;2023-10-09T15:51:42;21.7;70.3
78516;SHT31;67815;51.990;5.688;2023-10-09T15:54:14;21.7;70.4
78516;SHT31;67815;51.990;5.688;2023-10-09T15:56:47;21.7;70.1
78516;SHT31;67815;51.990;5.688;2023-10-09T15:59:16;21.7;70.1
78516;SHT31;67815;51.990;5.688;2023-10-09T16:01:47;21.7;70.1
78516;SHT31;67815;51.990;5.688;2023-10-09T16:04:18;21.6;69.8
78516;SHT31;67815;51.990;5.688;2023-10-09T16:06:50;21.6;69.8
78516;SHT31;67815;51.990;5.688;2023-10-09T16:09:20;21.6;69.9
78516;SHT31;67815;51.990;5.688;2023-10-09T16:11:53;21.6;70.2
78516;SHT31;67815;51.990;5.688;2023-10-09T16:14:22;21.6;70.1
78516;SHT31;67815;51.990;5.688;2023-10-09T16:16:52;21.6;70.2
78516;SHT31;67815;51.990;5.688;2023-10-09T16:19:23;21.5;70.4
78516;SHT31;67815;51.990;5.688;2023-10-09T16:21:57;21.5;70.3
78516;SHT31;67815;51.990;5.688;2023-10-09T16:24:31;21.5;70.1
78516;SHT31;67815;51.990;5.688;2023-10-09T16:27:03;21.5;70.5
78516;SHT31;67815;51.990;5.688;2023-10-09T16:29:32;21.5;70.1
78516;SHT31;67815;51.990;5.688;2023-10-09T16:32:02;21.5;70.3
78516;SHT31;67815;51.990;5.688;2023-10-09T16:34:34;21.5;70.2
78516;SHT31;67815;51.990;5.688;2023-10-09T16:37:06;21.4;70.5
78516;SHT31;67815;51.990;5.688;2023-10-09T16:39:36;21.4;70.4
78516;SHT31;67815;51.990;5.688;2023-10-09T16:42:09;21.4;70.8
78516;SHT31;67815;51.990;5.688;2023-10-09T16:44:41;21.4;71.0
78516;SHT31;67815;51.990;5.688;2023-10-09T16:47:15;21.4;70.8
78516;SHT31;67815;51.990;5.688;2023-10-09T16:49:46;21.4;70.5
78516;SHT31;67815;51.990;5.688;2023-10-09T16:52:18;21.4;70.2
78516;SHT31;67815;51.990;5.688;2023-10-09T16:54:50;21.4;70.4
78516;SHT31;67815;51.990;5.688;2023-10-09T16:57:20;21.4;70.5
78516;SHT31;67815;51.990;5.688;2023-10-09T16:59:51;21.4;70.8
78516;SHT31;67815;51.990;5.688;2023-10-09T17:02:22;21.4;70.6